createdAt,value
2023-04-27T00:00:19.071Z,8.27
2023-04-27T00:02:46.588Z,8.77
2023-04-27T00:05:14.333Z,10.63
2023-04-27T00:07:41.816Z,8.57
2023-04-27T00:10:09.697Z,9.20
2023-04-27T00:12:36.864Z,9.03
2023-04-27T00:15:04.940Z,10.10
2023-04-27T00:17:32.257Z,9.93
2023-04-27T00:20:00.565Z,8.43
2023-04-27T00:22:27.752Z,9.93
2023-04-27T00:24:54.867Z,8.80
2023-04-27T00:27:22.120Z,9.80
2023-04-27T00:29:49.300Z,9.03
2023-04-27T00:32:16.552Z,10.93
2023-04-27T00:34:44.132Z,8.93
2023-04-27T00:37:13.393Z,9.77
2023-04-27T00:39:40.745Z,8.07
2023-04-27T00:42:11.463Z,8.80
2023-04-27T00:44:39.825Z,10.80
2023-04-27T00:47:07.654Z,8.70
2023-04-27T00:49:35.223Z,8.47
2023-04-27T00:52:03.909Z,7.67
2023-04-27T00:54:31.882Z,8.37
2023-04-27T00:56:59.524Z,10.87
2023-04-27T00:59:26.792Z,7.63
2023-04-27T01:01:55.558Z,7.57
2023-04-27T01:04:23.439Z,9.40
2023-04-27T01:06:51.755Z,8.60
2023-04-27T01:09:20.051Z,7.50
2023-04-27T01:11:51.042Z,8.10
2023-04-27T01:14:18.279Z,7.33
2023-04-27T01:16:46.580Z,7.70
2023-04-27T01:19:14.041Z,10.60
2023-04-27T01:21:41.445Z,7.87
2023-04-27T01:24:09.095Z,7.70
2023-04-27T01:26:38.082Z,9.00
2023-04-27T01:29:05.386Z,9.50
2023-04-27T01:31:32.866Z,11.07
2023-04-27T01:34:00.174Z,8.40
2023-04-27T01:36:27.831Z,7.23
2023-04-27T01:38:56.860Z,7.87
2023-04-27T01:41:24.182Z,7.87
2023-04-27T01:43:51.369Z,8.83
2023-04-27T01:46:18.837Z,9.00
2023-04-27T01:48:46.092Z,9.57
2023-04-27T01:51:13.255Z,9.43
2023-04-27T01:53:41.892Z,9.53
2023-04-27T01:56:10.362Z,9.27
2023-04-27T01:58:37.762Z,8.07
2023-04-27T02:01:05.132Z,9.70
2023-04-27T02:03:32.634Z,8.43
2023-04-27T02:06:00.162Z,8.27
2023-04-27T02:08:27.422Z,8.10
2023-04-27T02:10:54.604Z,7.20
2023-04-27T02:13:23.958Z,9.20
2023-04-27T02:15:51.308Z,8.20
2023-04-27T02:18:18.742Z,9.03
2023-04-27T02:20:46.821Z,8.97
2023-04-27T02:23:14.013Z,7.60
2023-04-27T02:25:46.528Z,8.07
2023-04-27T02:28:14.244Z,7.93
2023-04-27T02:30:41.990Z,8.13
2023-04-27T02:33:09.285Z,8.30
2023-04-27T02:35:36.435Z,7.70
2023-04-27T02:38:03.696Z,7.20
2023-04-27T02:40:31.109Z,8.57
2023-04-27T02:42:58.273Z,7.40
2023-04-27T02:45:25.625Z,8.10
2023-04-27T02:47:52.866Z,7.03
2023-04-27T02:50:20.246Z,8.20
2023-04-27T02:52:47.516Z,8.03
2023-04-27T02:55:14.825Z,8.63
2023-04-27T02:57:42.605Z,9.87
2023-04-27T03:00:10.974Z,9.73
2023-04-27T03:02:38.515Z,9.63
2023-04-27T03:05:07.067Z,8.83
2023-04-27T03:07:34.366Z,10.10
2023-04-27T03:10:04.752Z,11.63
2023-04-27T03:12:31.896Z,8.30
2023-04-27T03:15:00.907Z,8.40
2023-04-27T03:17:28.370Z,8.03
2023-04-27T03:19:55.609Z,12.37
2023-04-27T03:22:24.586Z,8.07
2023-04-27T03:24:51.776Z,8.97
2023-04-27T03:27:19.198Z,8.33
2023-04-27T03:29:46.358Z,7.80
2023-04-27T03:32:13.832Z,8.63
2023-04-27T03:34:41.539Z,10.47
2023-04-27T03:37:08.668Z,7.77
2023-04-27T03:39:37.829Z,7.70
2023-04-27T03:42:05.770Z,8.50
2023-04-27T03:44:33.528Z,9.47
2023-04-27T03:47:01.659Z,8.10
2023-04-27T03:49:29.000Z,9.40
2023-04-27T03:51:56.860Z,11.00
2023-04-27T03:54:24.255Z,7.60
2023-04-27T03:56:52.338Z,8.77
2023-04-27T03:59:19.561Z,8.43
2023-04-27T04:01:50.043Z,11.73
2023-04-27T04:04:17.561Z,8.93
2023-04-27T04:06:44.839Z,8.80
2023-04-27T04:09:12.994Z,8.57
2023-04-27T04:11:41.426Z,8.43
2023-04-27T04:14:11.724Z,10.97
2023-04-27T04:16:40.312Z,9.40
2023-04-27T04:19:07.654Z,11.13
2023-04-27T04:21:34.941Z,8.40
2023-04-27T04:24:02.933Z,9.53
2023-04-27T04:26:30.799Z,10.67
2023-04-27T04:28:58.017Z,9.97
2023-04-27T04:31:26.333Z,9.90
2023-04-27T04:33:53.542Z,8.13
2023-04-27T04:36:21.500Z,9.40
2023-04-27T04:38:52.373Z,8.27
2023-04-27T04:41:19.722Z,9.13
2023-04-27T04:43:49.318Z,8.07
2023-04-27T04:46:18.101Z,6.90
2023-04-27T04:48:45.377Z,10.40
2023-04-27T04:51:13.147Z,8.43
2023-04-27T04:53:40.326Z,10.57
2023-04-27T04:56:12.831Z,8.23
2023-04-27T04:58:40.427Z,8.30
2023-04-27T05:01:07.842Z,9.20
2023-04-27T05:03:36.348Z,8.50
2023-04-27T05:06:03.711Z,6.40
2023-04-27T05:08:30.950Z,7.53
2023-04-27T05:10:58.096Z,9.23
2023-04-27T05:13:25.391Z,9.77
2023-04-27T05:15:53.120Z,9.60
2023-04-27T05:18:20.600Z,12.13
2023-04-27T05:20:47.726Z,8.00
2023-04-27T05:23:15.278Z,12.13
2023-04-27T05:25:42.778Z,9.50
2023-04-27T05:28:10.851Z,10.07
2023-04-27T05:30:38.324Z,9.03
2023-04-27T05:33:05.734Z,9.93
2023-04-27T05:35:33.552Z,7.07
2023-04-27T05:38:01.145Z,7.47
2023-04-27T05:40:28.940Z,8.93
2023-04-27T05:42:56.414Z,8.70
2023-04-27T05:45:23.582Z,7.73
2023-04-27T05:47:50.814Z,11.97
2023-04-27T05:50:18.136Z,7.50
2023-04-27T05:52:45.376Z,8.87
2023-04-27T05:55:12.541Z,8.77
2023-04-27T05:57:40.363Z,7.07
2023-04-27T06:00:10.465Z,9.37
2023-04-27T06:02:41.070Z,8.10
2023-04-27T06:05:08.802Z,8.40
2023-04-27T06:07:37.524Z,10.33
2023-04-27T06:10:06.048Z,10.00
2023-04-27T06:12:33.399Z,9.70
2023-04-27T06:15:00.899Z,8.23
2023-04-27T06:17:28.177Z,10.07
2023-04-27T06:19:55.349Z,11.93
2023-04-27T06:22:22.588Z,10.60
2023-04-27T06:24:49.801Z,8.13
2023-04-27T06:27:16.937Z,9.53
2023-04-27T06:29:44.077Z,6.63
2023-04-27T06:32:11.998Z,8.23
2023-04-27T06:34:39.161Z,7.00
2023-04-27T06:37:06.422Z,7.60
2023-04-27T06:39:33.960Z,9.00
2023-04-27T06:42:01.292Z,8.23
2023-04-27T06:44:28.460Z,7.20
2023-04-27T06:46:55.734Z,9.17
2023-04-27T06:49:22.896Z,8.17
2023-04-27T06:51:51.429Z,11.47
2023-04-27T06:54:18.605Z,8.43
2023-04-27T06:56:45.825Z,8.57
2023-04-27T06:59:13.215Z,8.00
2023-04-27T07:01:40.829Z,7.87
2023-04-27T07:04:08.196Z,6.80
2023-04-27T07:06:35.477Z,7.13
2023-04-27T07:09:05.989Z,8.27
2023-04-27T07:11:37.697Z,6.97
2023-04-27T07:14:04.905Z,9.63
2023-04-27T07:16:32.820Z,9.73
2023-04-27T07:19:00.041Z,7.17
2023-04-27T07:21:28.497Z,9.97
2023-04-27T07:23:56.208Z,7.87
2023-04-27T07:26:24.003Z,8.87
2023-04-27T07:28:51.150Z,8.77
2023-04-27T07:31:18.611Z,6.80
2023-04-27T07:33:46.629Z,7.10
2023-04-27T07:36:13.871Z,8.20
2023-04-27T07:38:41.038Z,7.67
2023-04-27T07:41:09.099Z,6.00
2023-04-27T07:43:36.266Z,7.40
2023-04-27T07:46:03.688Z,6.57
2023-04-27T07:48:30.983Z,7.27
2023-04-27T07:50:58.214Z,7.07
2023-04-27T07:53:25.416Z,7.23
2023-04-27T07:55:52.632Z,6.83
2023-04-27T07:58:19.952Z,6.33
2023-04-27T08:00:47.406Z,7.00
2023-04-27T08:03:14.669Z,7.83
2023-04-27T08:05:42.439Z,8.80
2023-04-27T08:08:10.097Z,8.23
2023-04-27T08:10:38.093Z,8.33
2023-04-27T08:13:05.311Z,6.90
2023-04-27T08:15:32.485Z,6.87
2023-04-27T08:17:59.687Z,7.57
2023-04-27T08:20:26.873Z,7.97
2023-04-27T08:22:54.100Z,7.83
2023-04-27T08:25:21.401Z,7.93
2023-04-27T08:27:48.598Z,7.80
2023-04-27T08:30:16.677Z,7.87
2023-04-27T08:32:43.899Z,7.17
2023-04-27T08:35:11.767Z,8.83
2023-04-27T08:37:39.071Z,7.87
2023-04-27T08:40:08.033Z,8.17
2023-04-27T08:42:35.315Z,9.07
2023-04-27T08:45:02.979Z,7.53
2023-04-27T08:47:41.774Z,9.70
2023-04-27T08:50:12.577Z,6.63
2023-04-27T08:52:39.800Z,8.20
2023-04-27T08:55:08.358Z,7.93
2023-04-27T08:57:36.055Z,8.17
2023-04-27T09:00:11.474Z,7.07
2023-04-27T09:02:48.314Z,9.10
2023-04-27T09:05:18.248Z,6.63
2023-04-27T09:08:05.619Z,11.13
2023-04-27T09:10:54.828Z,8.83
2023-04-27T09:13:22.249Z,7.50
2023-04-27T09:15:51.700Z,6.87
2023-04-27T09:18:21.521Z,8.30
2023-04-27T09:20:50.581Z,8.67
2023-04-27T09:23:28.045Z,7.80
2023-04-27T09:25:56.706Z,6.73
2023-04-27T09:28:25.886Z,7.63
2023-04-27T09:31:01.425Z,8.67
2023-04-27T09:33:35.986Z,8.10
2023-04-27T09:36:06.959Z,7.90
2023-04-27T09:38:34.712Z,6.97
2023-04-27T09:41:02.520Z,5.90
2023-04-27T09:43:31.355Z,5.53
2023-04-27T09:45:59.102Z,6.23
2023-04-27T09:48:26.800Z,6.63
2023-04-27T09:50:54.135Z,5.87
2023-04-27T09:53:30.487Z,6.80
2023-04-27T09:56:26.260Z,5.43
2023-04-27T09:59:26.986Z,7.93
2023-04-27T10:02:04.977Z,6.60
2023-04-27T10:04:55.854Z,5.73
2023-04-27T10:07:26.325Z,5.80
2023-04-27T10:09:53.684Z,6.10
2023-04-27T10:12:36.510Z,6.63
2023-04-27T10:15:16.692Z,6.57
2023-04-27T10:17:53.110Z,5.10
2023-04-27T10:20:31.140Z,6.07
2023-04-27T10:22:59.105Z,5.53
2023-04-27T10:25:38.232Z,6.83
2023-04-27T10:28:07.975Z,6.60
2023-04-27T10:30:39.419Z,5.13
2023-04-27T10:33:09.841Z,5.47
2023-04-27T10:35:46.073Z,5.20
2023-04-27T10:38:17.550Z,5.33
2023-04-27T10:40:46.533Z,4.83
2023-04-27T10:43:15.796Z,6.17
2023-04-27T10:45:43.969Z,5.90
2023-04-27T10:48:15.752Z,5.23
2023-04-27T10:50:44.760Z,7.03
2023-04-27T10:53:12.530Z,5.30
2023-04-27T10:55:39.912Z,5.80
2023-04-27T10:58:07.109Z,4.80
2023-04-27T11:00:44.272Z,6.03
2023-04-27T11:03:18.407Z,5.40
2023-04-27T11:05:48.009Z,6.93
2023-04-27T11:08:17.181Z,5.37
2023-04-27T11:10:47.100Z,4.77
2023-04-27T11:13:16.041Z,6.03
2023-04-27T11:15:46.205Z,6.07
2023-04-27T11:18:13.781Z,8.20
2023-04-27T11:20:41.173Z,7.00
2023-04-27T11:23:11.019Z,5.17
2023-04-27T11:25:38.987Z,5.83
2023-04-27T11:28:18.281Z,5.77
2023-04-27T11:30:45.828Z,5.50
2023-04-27T11:33:13.393Z,5.97
2023-04-27T11:35:42.420Z,5.07
2023-04-27T11:38:16.966Z,5.10
2023-04-27T11:40:46.662Z,6.27
2023-04-27T11:43:14.807Z,21.50
2023-04-27T11:45:46.254Z,5.23
2023-04-27T11:48:16.930Z,5.30
2023-04-27T11:50:50.763Z,6.47
2023-04-27T11:53:18.986Z,5.97
2023-04-27T11:55:52.384Z,5.53
2023-04-27T11:58:21.229Z,4.93
2023-04-27T12:00:48.449Z,4.20
2023-04-27T12:03:15.929Z,5.93
2023-04-27T12:05:50.873Z,5.13
2023-04-27T12:08:18.558Z,5.27
2023-04-27T12:10:47.336Z,5.53
2023-04-27T12:13:14.892Z,3.93
2023-04-27T12:15:42.750Z,5.13
2023-04-27T12:18:10.310Z,4.47
2023-04-27T12:20:37.782Z,6.83
2023-04-27T12:23:04.939Z,4.60
2023-04-27T12:25:32.104Z,5.20
2023-04-27T12:27:59.297Z,5.10
2023-04-27T12:30:27.250Z,3.97
2023-04-27T12:32:54.616Z,4.43
2023-04-27T12:35:22.225Z,4.73
2023-04-27T12:37:50.041Z,6.67
2023-04-27T12:40:17.331Z,4.20
2023-04-27T12:42:44.451Z,3.70
2023-04-27T12:45:11.647Z,6.50
2023-04-27T12:47:54.472Z,3.93
2023-04-27T12:50:27.354Z,4.80
2023-04-27T12:52:54.543Z,4.70
2023-04-27T12:55:32.281Z,4.67
2023-04-27T12:58:00.771Z,3.73
2023-04-27T13:00:29.406Z,4.63
2023-04-27T13:02:57.268Z,5.80
2023-04-27T13:05:24.831Z,3.43
2023-04-27T13:07:52.531Z,5.40
2023-04-27T13:10:19.830Z,6.77
2023-04-27T13:12:47.014Z,4.97
2023-04-27T13:15:14.228Z,4.37
2023-04-27T13:17:43.718Z,4.27
2023-04-27T13:20:11.822Z,4.93
2023-04-27T13:22:40.610Z,3.77
2023-04-27T13:25:09.354Z,4.97
2023-04-27T13:27:36.771Z,6.27
2023-04-27T13:30:05.102Z,6.17
2023-04-27T13:32:32.492Z,4.83
2023-04-27T13:34:59.866Z,5.20
2023-04-27T13:37:27.143Z,4.97
2023-04-27T13:39:54.351Z,5.47
2023-04-27T13:42:21.615Z,3.87
2023-04-27T13:44:48.786Z,5.53
2023-04-27T13:47:15.975Z,4.97
2023-04-27T13:49:43.159Z,4.13
2023-04-27T13:52:10.618Z,3.67
2023-04-27T13:54:37.764Z,3.43
2023-04-27T13:57:05.027Z,4.97
2023-04-27T13:59:32.207Z,5.03
2023-04-27T14:01:59.376Z,3.73
2023-04-27T14:04:26.632Z,3.63
2023-04-27T14:06:53.892Z,3.70
2023-04-27T14:09:21.184Z,5.80
2023-04-27T14:11:56.296Z,5.30
2023-04-27T14:14:24.714Z,6.17
2023-04-27T14:16:53.482Z,4.57
2023-04-27T14:19:20.966Z,4.90
2023-04-27T14:21:49.967Z,6.03
2023-04-27T14:24:17.136Z,4.83
2023-04-27T14:26:46.433Z,4.73
2023-04-27T14:29:14.102Z,3.27
2023-04-27T14:31:41.757Z,6.17
2023-04-27T14:34:09.094Z,4.97
2023-04-27T14:36:36.561Z,3.43
2023-04-27T14:39:06.460Z,3.87
2023-04-27T14:41:33.866Z,3.67
2023-04-27T14:44:01.201Z,5.20
2023-04-27T14:46:28.625Z,3.27
2023-04-27T14:48:56.340Z,3.43
2023-04-27T14:51:23.504Z,5.40
2023-04-27T14:53:50.634Z,4.77
2023-04-27T14:56:18.089Z,4.23
2023-04-27T14:58:45.587Z,4.10
2023-04-27T15:01:12.866Z,5.47
2023-04-27T15:03:40.273Z,2.70
2023-04-27T15:06:07.689Z,2.77
2023-04-27T15:08:34.853Z,4.70
2023-04-27T15:11:04.221Z,6.00
2023-04-27T15:13:31.398Z,3.73
2023-04-27T15:16:00.881Z,3.70
2023-04-27T15:18:28.094Z,3.97
2023-04-27T15:20:55.824Z,4.40
2023-04-27T15:23:24.278Z,3.63
2023-04-27T15:25:55.418Z,4.90
2023-04-27T15:28:22.625Z,5.97
2023-04-27T15:30:50.381Z,4.20
2023-04-27T15:33:18.430Z,3.63
2023-04-27T15:35:45.607Z,3.63
2023-04-27T15:38:14.717Z,4.07
2023-04-27T15:40:41.954Z,9.93
2023-04-27T15:43:09.308Z,4.93
2023-04-27T15:45:36.541Z,3.20
2023-04-27T15:48:03.975Z,11.07
2023-04-27T15:50:31.253Z,3.73
2023-04-27T15:52:58.481Z,4.60
2023-04-27T15:55:25.785Z,4.17
2023-04-27T15:57:53.588Z,3.90
2023-04-27T16:00:22.238Z,3.47
2023-04-27T16:02:49.771Z,3.27
2023-04-27T16:05:17.289Z,3.77
2023-04-27T16:07:45.048Z,4.73
2023-04-27T16:10:13.365Z,2.87
2023-04-27T16:12:40.959Z,3.83
2023-04-27T16:15:10.989Z,2.87
2023-04-27T16:17:38.988Z,3.43
2023-04-27T16:20:07.037Z,5.90
2023-04-27T16:22:35.029Z,3.70
2023-04-27T16:25:02.961Z,5.33
2023-04-27T16:27:30.187Z,3.93
2023-04-27T16:29:57.385Z,4.13
2023-04-27T16:32:24.956Z,3.67
2023-04-27T16:34:52.189Z,4.13
2023-04-27T16:37:19.366Z,3.13
2023-04-27T16:39:46.682Z,2.97
2023-04-27T16:42:18.538Z,4.83
2023-04-27T16:44:46.624Z,3.20
2023-04-27T16:47:13.799Z,5.53
2023-04-27T16:49:43.843Z,3.03
2023-04-27T16:52:12.612Z,3.83
2023-04-27T16:54:40.019Z,6.60
2023-04-27T16:57:07.737Z,3.97
2023-04-27T16:59:35.081Z,3.50
2023-04-27T17:02:16.265Z,4.00
2023-04-27T17:04:49.572Z,7.17
2023-04-27T17:07:16.780Z,3.40
2023-04-27T17:09:44.025Z,3.77
2023-04-27T17:12:13.157Z,5.00
2023-04-27T17:14:40.477Z,4.47
2023-04-27T17:17:07.678Z,4.63
2023-04-27T17:19:34.864Z,4.10
2023-04-27T17:22:02.113Z,5.43
2023-04-27T17:24:29.310Z,4.57
2023-04-27T17:26:56.437Z,4.60
2023-04-27T17:29:23.683Z,6.10
2023-04-27T17:31:50.852Z,5.10
2023-04-27T17:34:18.088Z,5.67
2023-04-27T17:36:46.160Z,7.90
2023-04-27T17:39:14.576Z,7.93
2023-04-27T17:41:42.215Z,6.97
2023-04-27T17:44:11.832Z,6.90
2023-04-27T17:46:45.689Z,5.53
2023-04-27T17:49:13.145Z,5.30
2023-04-27T17:51:40.552Z,8.93
2023-04-27T17:54:09.777Z,6.67
2023-04-27T17:56:37.691Z,8.47
2023-04-27T17:59:07.181Z,7.10
2023-04-27T18:01:34.497Z,8.00
2023-04-27T18:04:04.302Z,7.87
2023-04-27T18:06:32.250Z,6.63
2023-04-27T18:09:02.038Z,9.97
2023-04-27T18:11:29.493Z,8.93
2023-04-27T18:13:58.318Z,5.70
2023-04-27T18:16:25.833Z,5.10
2023-04-27T18:18:53.120Z,4.83
2023-04-27T18:21:20.351Z,5.03
2023-04-27T18:23:47.725Z,5.30
2023-04-27T18:26:14.994Z,3.83
2023-04-27T18:28:42.223Z,4.97
2023-04-27T18:31:16.865Z,4.83
2023-04-27T18:33:44.947Z,9.10
2023-04-27T18:36:12.860Z,6.07
2023-04-27T18:38:40.534Z,6.77
2023-04-27T18:41:08.007Z,7.33
2023-04-27T18:43:36.583Z,5.17
2023-04-27T18:46:04.530Z,5.40
2023-04-27T18:48:32.325Z,4.87
2023-04-27T18:50:59.730Z,5.10
2023-04-27T18:53:28.280Z,6.23
2023-04-27T18:55:55.712Z,6.47
2023-04-27T18:58:23.258Z,4.90
2023-04-27T19:00:50.843Z,6.17
2023-04-27T19:03:18.495Z,7.23
2023-04-27T19:05:45.963Z,4.90
2023-04-27T19:08:13.189Z,7.20
2023-04-27T19:10:43.285Z,5.97
2023-04-27T19:13:10.471Z,7.03
2023-04-27T19:15:37.993Z,5.47
2023-04-27T19:18:10.554Z,5.30
2023-04-27T19:20:39.421Z,6.47
2023-04-27T19:23:09.111Z,7.10
2023-04-27T19:25:36.395Z,6.37
2023-04-27T19:28:05.071Z,7.10
2023-04-27T19:30:32.418Z,5.33
2023-04-27T19:32:59.784Z,6.27
2023-04-27T19:35:27.380Z,7.47
2023-04-27T19:37:54.684Z,6.27
2023-04-27T19:40:22.111Z,6.60
2023-04-27T19:42:49.748Z,7.10
2023-04-27T19:45:18.001Z,6.33
2023-04-27T19:47:45.923Z,8.07
2023-04-27T19:50:13.218Z,6.30
2023-04-27T19:52:40.827Z,5.87
2023-04-27T19:55:08.452Z,5.80
2023-04-27T19:57:36.351Z,6.80
2023-04-27T20:00:10.247Z,10.17
2023-04-27T20:02:40.603Z,10.40
2023-04-27T20:05:08.570Z,7.77
2023-04-27T20:07:38.563Z,9.20
2023-04-27T20:10:06.300Z,10.27
2023-04-27T20:12:51.331Z,10.47
2023-04-27T20:15:21.030Z,12.53
2023-04-27T20:17:48.320Z,10.93
2023-04-27T20:20:15.573Z,9.70
2023-04-27T20:22:42.755Z,9.90
2023-04-27T20:25:10.631Z,12.83
2023-04-27T20:27:37.778Z,9.00
2023-04-27T20:30:05.511Z,10.60
2023-04-27T20:32:32.718Z,10.50
2023-04-27T20:35:02.022Z,9.40
2023-04-27T20:37:29.546Z,10.80
2023-04-27T20:39:56.711Z,7.83
2023-04-27T20:42:24.452Z,7.67
2023-04-27T20:44:54.576Z,9.70
2023-04-27T20:47:21.852Z,8.13
2023-04-27T20:49:49.146Z,7.53
2023-04-27T20:52:16.696Z,8.33
2023-04-27T20:54:44.095Z,11.30
2023-04-27T20:57:13.993Z,9.90
2023-04-27T20:59:41.524Z,8.10
2023-04-27T21:02:08.892Z,8.47
2023-04-27T21:04:36.272Z,8.50
2023-04-27T21:07:03.564Z,9.33
2023-04-27T21:09:31.322Z,11.20
2023-04-27T21:11:58.514Z,9.53
2023-04-27T21:14:25.673Z,7.87
2023-04-27T21:16:52.894Z,9.53
2023-04-27T21:19:21.370Z,10.23
2023-04-27T21:21:49.760Z,7.80
2023-04-27T21:24:17.010Z,8.80
2023-04-27T21:26:44.130Z,7.63
2023-04-27T21:29:11.378Z,8.70
2023-04-27T21:31:41.194Z,9.40
2023-04-27T21:34:08.753Z,8.77
2023-04-27T21:36:37.118Z,9.13
2023-04-27T21:39:04.989Z,6.70
2023-04-27T21:41:34.570Z,9.00
2023-04-27T21:44:01.820Z,8.77
2023-04-27T21:46:29.124Z,7.03
2023-04-27T21:48:56.610Z,8.17
2023-04-27T21:51:23.837Z,7.50
2023-04-27T21:53:50.956Z,8.57
2023-04-27T21:56:18.162Z,7.03
2023-04-27T21:58:45.349Z,8.53
2023-04-27T22:01:13.148Z,7.90
2023-04-27T22:03:40.632Z,7.93
2023-04-27T22:06:08.966Z,7.53
2023-04-27T22:08:36.302Z,7.07
2023-04-27T22:11:03.501Z,8.70
2023-04-27T22:13:30.792Z,9.40
2023-04-27T22:15:58.027Z,7.27
2023-04-27T22:18:25.233Z,7.47
2023-04-27T22:20:54.396Z,8.57
2023-04-27T22:23:21.688Z,7.50
2023-04-27T22:25:48.893Z,7.00
2023-04-27T22:28:16.181Z,7.57
2023-04-27T22:30:43.959Z,8.63
2023-04-27T22:33:11.297Z,8.53
2023-04-27T22:35:38.799Z,8.73
2023-04-27T22:38:06.990Z,7.43
2023-04-27T22:40:34.394Z,10.57
2023-04-27T22:43:01.602Z,8.97
2023-04-27T22:45:28.811Z,7.60
2023-04-27T22:47:57.480Z,7.83
2023-04-27T22:50:24.772Z,7.00
2023-04-27T22:52:52.866Z,7.40
2023-04-27T22:55:20.132Z,7.33
2023-04-27T22:57:49.723Z,7.00
2023-04-27T23:00:17.467Z,8.70
2023-04-27T23:02:45.029Z,7.87
2023-04-27T23:05:12.419Z,7.97
2023-04-27T23:07:43.582Z,8.20
2023-04-27T23:10:11.063Z,7.23
2023-04-27T23:12:38.966Z,9.67
2023-04-27T23:15:06.960Z,6.90
2023-04-27T23:17:34.503Z,7.20
2023-04-27T23:20:11.223Z,7.33
2023-04-27T23:22:44.590Z,7.40
2023-04-27T23:25:11.923Z,6.80
2023-04-27T23:27:39.132Z,7.00
2023-04-27T23:30:07.060Z,6.53
2023-04-27T23:32:35.667Z,8.77
2023-04-27T23:35:03.023Z,6.43
2023-04-27T23:37:30.169Z,6.90
2023-04-27T23:39:57.347Z,6.30
2023-04-27T23:42:24.541Z,5.30
2023-04-27T23:44:53.114Z,7.07
2023-04-27T23:47:20.294Z,5.30
2023-04-27T23:49:47.485Z,5.80
2023-04-27T23:52:14.682Z,8.57
2023-04-27T23:54:41.970Z,5.03
2023-04-27T23:57:09.180Z,6.67
2023-04-27T23:59:36.689Z,6.53
